Rhinelander, WI

2:01 PM CDT on September 30, 2014 (GMT -0500)
2nd Lake - Moen Chain | Change Station
CLOSE
Current Station
Personal Weather Station
Location: Rhinelander, WI
Elevation: 1604 ft
Nearby Weather Stations

Elev 1604 ft 45.66 °N, 89.30 °W | Updated 45 seconds ago

Partly Cloudy
Partly Cloudy
49.5 °F
Feels Like 50 °F
N
0.0
Wind Variable Wind from North
Gusts 1.1 mph

Today
High -- | Low -- °F
--% Chance of Precip.
Yesterday
High -- | Low -- °F
Precip. -- in
6:54 AM 6:39 PM
Waxing Crescent, 39% visible
Pressure 30.10 in
Visibility 10.0 miles
Clouds Clear
Windchill 50 °F
Dew Point 33 °F
Humidity 52%
Rainfall 0.00 in
Snow Depth Not available.
UV 0.0 out of 12
Pollen 1.60 out of 12
Air Quality Not available.
Flu Activity Not available.
METAR KRHI 301853Z AUTO VRB04KT 10SM CLR 10/04 A3007 RMK AO2 SLP193 T01000044

More Conditions Fewer Conditions

Pressure 30.10 in
Visibility 10.0 miles
Clouds Clear
Windchill 50 °F
Dew Point 33 °F
Humidity 52%
Rainfall 0.00 in
Snow Depth Not available.
UV 0.0 out of 12
Pollen 1.60 out of 12
Air Quality Not available.
Flu Activity Not available.
METAR KRHI 301853Z AUTO VRB04KT 10SM CLR 10/04 A3007 RMK AO2 SLP193 T01000044

More Conditions Fewer Conditions

10-Day Weather Forecast

Almanac

Astronomy

Sep. 30, 2014 Rise Set
Actual Time 6:54 AM CDT 6:39 PM CDT
Civil Twilight 6:24 AM CDT 7:09 PM CDT
Nautical Twilight 5:50 AM CDT 7:43 PM CDT
Astronomical Twilight 5:15 AM CDT 8:18 PM CDT
Moon 1:16 PM CDT 10:56 PM CDT
Length of Visible Light 12h 44m
Length of Day
11h 45m
Tomorrow will be 3m 11s shorter.
Waxing Crescent, 39% of the Moon is Illuminated
Today
Waxing Crescent
Oct 1
First Quarter
Oct 8
Full
Oct 15
Last Quarter
Oct 23
New

Today's Extremes

State Highs State Lows

Community

WunderPhotos

Upload Photos

1,757,719 photos uploaded!

Nearby

Snow Depth

Station Depth Elevation
No new snow has been reported.

Earthquake Activity

City Distance Mag. Time & Date
No recent earthquake activity has been reported nearby.
Minimum magnitude displayed is 2.5.

Coastal Water Temperatures

Place Temperature
No Stations Reporting

Nearby Weather Stations